sensor_id;sensor_type;location;lat;lon;timestamp;P1;durP1;ratioP1;P2;durP2;ratioP2
5754;SDS011;2902;42.130;24.732;2022-12-18T00:02:11;54.57;;;35.37;;
5754;SDS011;2902;42.130;24.732;2022-12-18T00:04:38;51.23;;;34.27;;
5754;SDS011;2902;42.130;24.732;2022-12-18T00:07:05;46.87;;;33.60;;
5754;SDS011;2902;42.130;24.732;2022-12-18T00:09:32;51.80;;;35.83;;
5754;SDS011;2902;42.130;24.732;2022-12-18T00:12:00;49.17;;;33.73;;
5754;SDS011;2902;42.130;24.732;2022-12-18T00:14:26;52.47;;;35.63;;
5754;SDS011;2902;42.130;24.732;2022-12-18T00:16:53;90.47;;;51.50;;
5754;SDS011;2902;42.130;24.732;2022-12-18T00:19:20;75.27;;;46.97;;
5754;SDS011;2902;42.130;24.732;2022-12-18T00:21:47;60.03;;;37.80;;
5754;SDS011;2902;42.130;24.732;2022-12-18T00:24:13;58.90;;;37.33;;
5754;SDS011;2902;42.130;24.732;2022-12-18T00:26:40;55.80;;;37.90;;
5754;SDS011;2902;42.130;24.732;2022-12-18T00:29:10;60.60;;;38.13;;
5754;SDS011;2902;42.130;24.732;2022-12-18T00:31:39;56.40;;;37.00;;
5754;SDS011;2902;42.130;24.732;2022-12-18T00:34:08;53.67;;;32.87;;
5754;SDS011;2902;42.130;24.732;2022-12-18T00:36:36;53.33;;;33.87;;
5754;SDS011;2902;42.130;24.732;2022-12-18T00:39:04;53.20;;;33.63;;
5754;SDS011;2902;42.130;24.732;2022-12-18T00:41:31;47.97;;;32.33;;
5754;SDS011;2902;42.130;24.732;2022-12-18T00:44:17;47.60;;;32.43;;
5754;SDS011;2902;42.130;24.732;2022-12-18T00:46:44;45.63;;;32.53;;
5754;SDS011;2902;42.130;24.732;2022-12-18T00:49:12;44.03;;;32.30;;
5754;SDS011;2902;42.130;24.732;2022-12-18T00:51:39;40.03;;;29.97;;
5754;SDS011;2902;42.130;24.732;2022-12-18T00:54:06;39.33;;;30.30;;
5754;SDS011;2902;42.130;24.732;2022-12-18T00:56:34;45.20;;;30.80;;
5754;SDS011;2902;42.130;24.732;2022-12-18T00:59:01;42.33;;;30.80;;
5754;SDS011;2902;42.130;24.732;2022-12-18T01:01:30;45.60;;;30.87;;
5754;SDS011;2902;42.130;24.732;2022-12-18T01:03:57;46.20;;;30.77;;
5754;SDS011;2902;42.130;24.732;2022-12-18T01:06:24;42.83;;;30.53;;
5754;SDS011;2902;42.130;24.732;2022-12-18T01:08:50;44.83;;;31.17;;
5754;SDS011;2902;42.130;24.732;2022-12-18T01:11:18;43.20;;;31.87;;
5754;SDS011;2902;42.130;24.732;2022-12-18T01:13:46;44.33;;;29.67;;
5754;SDS011;2902;42.130;24.732;2022-12-18T01:16:13;40.53;;;29.67;;
5754;SDS011;2902;42.130;24.732;2022-12-18T01:18:43;44.40;;;30.77;;
5754;SDS011;2902;42.130;24.732;2022-12-18T01:21:10;42.63;;;30.10;;
5754;SDS011;2902;42.130;24.732;2022-12-18T01:23:39;47.20;;;32.13;;
5754;SDS011;2902;42.130;24.732;2022-12-18T01:26:06;46.70;;;31.93;;
5754;SDS011;2902;42.130;24.732;2022-12-18T01:28:33;61.63;;;37.93;;
5754;SDS011;2902;42.130;24.732;2022-12-18T01:31:09;105.80;;;51.93;;
5754;SDS011;2902;42.130;24.732;2022-12-18T01:33:39;84.30;;;43.60;;
5754;SDS011;2902;42.130;24.732;2022-12-18T01:36:08;60.33;;;37.43;;
5754;SDS011;2902;42.130;24.732;2022-12-18T01:38:40;47.27;;;31.67;;
5754;SDS011;2902;42.130;24.732;2022-12-18T01:41:07;50.93;;;35.43;;
5754;SDS011;2902;42.130;24.732;2022-12-18T01:43:41;49.30;;;33.70;;
5754;SDS011;2902;42.130;24.732;2022-12-18T01:46:13;48.07;;;31.70;;
5754;SDS011;2902;42.130;24.732;2022-12-18T01:48:40;50.40;;;33.53;;
5754;SDS011;2902;42.130;24.732;2022-12-18T01:51:10;72.23;;;38.90;;
5754;SDS011;2902;42.130;24.732;2022-12-18T01:53:38;58.43;;;36.30;;
5754;SDS011;2902;42.130;24.732;2022-12-18T01:56:07;53.30;;;32.53;;
5754;SDS011;2902;42.130;24.732;2022-12-18T01:58:39;48.60;;;31.97;;
5754;SDS011;2902;42.130;24.732;2022-12-18T02:01:12;44.63;;;30.43;;
5754;SDS011;2902;42.130;24.732;2022-12-18T02:03:40;38.10;;;27.67;;
5754;SDS011;2902;42.130;24.732;2022-12-18T02:06:12;37.07;;;26.90;;
5754;SDS011;2902;42.130;24.732;2022-12-18T02:08:45;34.87;;;26.70;;
5754;SDS011;2902;42.130;24.732;2022-12-18T02:11:23;33.43;;;23.73;;
5754;SDS011;2902;42.130;24.732;2022-12-18T02:14:00;33.00;;;23.47;;
5754;SDS011;2902;42.130;24.732;2022-12-18T02:16:35;30.57;;;22.10;;
5754;SDS011;2902;42.130;24.732;2022-12-18T02:19:11;26.60;;;20.73;;
5754;SDS011;2902;42.130;24.732;2022-12-18T02:21:49;28.40;;;21.73;;
5754;SDS011;2902;42.130;24.732;2022-12-18T02:24:26;28.60;;;19.53;;
5754;SDS011;2902;42.130;24.732;2022-12-18T02:27:01;26.10;;;19.70;;
5754;SDS011;2902;42.130;24.732;2022-12-18T02:29:32;22.87;;;19.43;;
5754;SDS011;2902;42.130;24.732;2022-12-18T02:32:03;26.30;;;20.10;;
5754;SDS011;2902;42.130;24.732;2022-12-18T02:34:37;29.00;;;20.53;;
5754;SDS011;2902;42.130;24.732;2022-12-18T02:37:05;26.73;;;19.90;;
5754;SDS011;2902;42.130;24.732;2022-12-18T02:39:37;24.87;;;18.80;;
5754;SDS011;2902;42.130;24.732;2022-12-18T02:42:09;27.33;;;20.57;;
5754;SDS011;2902;42.130;24.732;2022-12-18T02:44:41;25.73;;;18.03;;
5754;SDS011;2902;42.130;24.732;2022-12-18T02:47:09;22.87;;;18.50;;
5754;SDS011;2902;42.130;24.732;2022-12-18T02:49:40;26.93;;;18.90;;
5754;SDS011;2902;42.130;24.732;2022-12-18T02:52:17;24.23;;;18.80;;
5754;SDS011;2902;42.130;24.732;2022-12-18T02:54:55;23.30;;;18.33;;
5754;SDS011;2902;42.130;24.732;2022-12-18T02:57:30;22.20;;;18.13;;
5754;SDS011;2902;42.130;24.732;2022-12-18T03:00:03;21.37;;;17.27;;
5754;SDS011;2902;42.130;24.732;2022-12-18T03:02:34;28.33;;;20.03;;
5754;SDS011;2902;42.130;24.732;2022-12-18T03:05:07;25.90;;;18.77;;
5754;SDS011;2902;42.130;24.732;2022-12-18T03:07:40;19.93;;;16.97;;
5754;SDS011;2902;42.130;24.732;2022-12-18T03:10:12;31.10;;;20.10;;
5754;SDS011;2902;42.130;24.732;2022-12-18T03:12:43;27.73;;;19.57;;
5754;SDS011;2902;42.130;24.732;2022-12-18T03:15:16;22.90;;;18.53;;
5754;SDS011;2902;42.130;24.732;2022-12-18T03:17:49;27.23;;;19.07;;
5754;SDS011;2902;42.130;24.732;2022-12-18T03:20:21;27.83;;;19.00;;
5754;SDS011;2902;42.130;24.732;2022-12-18T03:22:51;21.83;;;17.33;;
5754;SDS011;2902;42.130;24.732;2022-12-18T03:25:23;24.63;;;18.60;;
5754;SDS011;2902;42.130;24.732;2022-12-18T03:27:54;27.67;;;17.77;;
5754;SDS011;2902;42.130;24.732;2022-12-18T03:30:24;27.73;;;19.20;;
5754;SDS011;2902;42.130;24.732;2022-12-18T03:32:56;24.60;;;18.30;;
5754;SDS011;2902;42.130;24.732;2022-12-18T03:35:29;23.80;;;18.20;;
5754;SDS011;2902;42.130;24.732;2022-12-18T03:37:58;24.37;;;16.83;;
5754;SDS011;2902;42.130;24.732;2022-12-18T03:40:26;22.97;;;17.03;;
5754;SDS011;2902;42.130;24.732;2022-12-18T03:43:03;23.20;;;17.23;;
5754;SDS011;2902;42.130;24.732;2022-12-18T03:45:37;20.07;;;15.27;;
5754;SDS011;2902;42.130;24.732;2022-12-18T03:48:08;19.53;;;16.23;;
5754;SDS011;2902;42.130;24.732;2022-12-18T03:50:44;21.50;;;16.50;;
5754;SDS011;2902;42.130;24.732;2022-12-18T03:53:17;22.93;;;16.57;;
5754;SDS011;2902;42.130;24.732;2022-12-18T03:55:53;17.93;;;15.93;;
5754;SDS011;2902;42.130;24.732;2022-12-18T03:58:24;22.70;;;16.77;;
5754;SDS011;2902;42.130;24.732;2022-12-18T04:00:52;25.50;;;17.03;;
5754;SDS011;2902;42.130;24.732;2022-12-18T04:03:23;25.83;;;15.80;;
5754;SDS011;2902;42.130;24.732;2022-12-18T04:05:51;24.33;;;16.57;;
5754;SDS011;2902;42.130;24.732;2022-12-18T04:08:21;19.27;;;16.03;;
5754;SDS011;2902;42.130;24.732;2022-12-18T04:10:49;17.00;;;14.07;;
5754;SDS011;2902;42.130;24.732;2022-12-18T04:13:21;20.93;;;14.23;;
5754;SDS011;2902;42.130;24.732;2022-12-18T04:15:49;27.23;;;16.60;;
5754;SDS011;2902;42.130;24.732;2022-12-18T04:18:16;18.43;;;15.60;;
5754;SDS011;2902;42.130;24.732;2022-12-18T04:20:43;21.50;;;16.77;;
5754;SDS011;2902;42.130;24.732;2022-12-18T04:23:09;19.10;;;14.80;;
5754;SDS011;2902;42.130;24.732;2022-12-18T04:25:36;18.80;;;14.90;;
5754;SDS011;2902;42.130;24.732;2022-12-18T04:28:03;17.40;;;13.90;;
5754;SDS011;2902;42.130;24.732;2022-12-18T04:30:30;16.10;;;12.87;;
5754;SDS011;2902;42.130;24.732;2022-12-18T04:32:58;13.17;;;11.60;;
5754;SDS011;2902;42.130;24.732;2022-12-18T04:35:25;17.53;;;13.27;;
5754;SDS011;2902;42.130;24.732;2022-12-18T04:37:51;11.47;;;10.30;;
5754;SDS011;2902;42.130;24.732;2022-12-18T04:40:18;11.10;;;9.83;;
5754;SDS011;2902;42.130;24.732;2022-12-18T04:42:45;10.53;;;9.53;;
5754;SDS011;2902;42.130;24.732;2022-12-18T04:45:11;10.77;;;9.77;;
5754;SDS011;2902;42.130;24.732;2022-12-18T04:47:38;9.57;;;8.67;;
5754;SDS011;2902;42.130;24.732;2022-12-18T04:50:07;10.80;;;8.60;;
5754;SDS011;2902;42.130;24.732;2022-12-18T04:52:34;9.57;;;8.60;;
5754;SDS011;2902;42.130;24.732;2022-12-18T04:55:01;9.30;;;8.40;;
5754;SDS011;2902;42.130;24.732;2022-12-18T04:57:28;8.70;;;8.00;;
5754;SDS011;2902;42.130;24.732;2022-12-18T04:59:54;10.73;;;8.40;;
5754;SDS011;2902;42.130;24.732;2022-12-18T05:02:21;7.63;;;7.00;;
5754;SDS011;2902;42.130;24.732;2022-12-18T05:04:48;8.80;;;8.00;;
5754;SDS011;2902;42.130;24.732;2022-12-18T05:07:16;7.80;;;7.20;;
5754;SDS011;2902;42.130;24.732;2022-12-18T05:09:43;8.07;;;7.20;;
5754;SDS011;2902;42.130;24.732;2022-12-18T05:12:09;7.77;;;7.13;;
5754;SDS011;2902;42.130;24.732;2022-12-18T05:14:36;7.43;;;6.83;;
5754;SDS011;2902;42.130;24.732;2022-12-18T05:17:03;7.77;;;6.97;;
5754;SDS011;2902;42.130;24.732;2022-12-18T05:19:29;8.47;;;7.67;;
5754;SDS011;2902;42.130;24.732;2022-12-18T05:21:56;8.53;;;7.77;;
5754;SDS011;2902;42.130;24.732;2022-12-18T05:24:24;8.60;;;7.87;;
5754;SDS011;2902;42.130;24.732;2022-12-18T05:26:51;8.37;;;7.63;;
5754;SDS011;2902;42.130;24.732;2022-12-18T05:29:18;9.73;;;8.87;;
5754;SDS011;2902;42.130;24.732;2022-12-18T05:31:45;10.43;;;8.20;;
5754;SDS011;2902;42.130;24.732;2022-12-18T05:34:11;8.40;;;7.67;;
5754;SDS011;2902;42.130;24.732;2022-12-18T05:36:38;13.67;;;7.97;;
5754;SDS011;2902;42.130;24.732;2022-12-18T05:39:05;9.20;;;8.33;;
5754;SDS011;2902;42.130;24.732;2022-12-18T05:41:33;8.63;;;7.83;;
5754;SDS011;2902;42.130;24.732;2022-12-18T05:44:00;15.80;;;8.93;;
5754;SDS011;2902;42.130;24.732;2022-12-18T05:46:27;8.87;;;7.80;;
5754;SDS011;2902;42.130;24.732;2022-12-18T05:48:54;8.37;;;7.53;;
5754;SDS011;2902;42.130;24.732;2022-12-18T05:51:21;8.43;;;7.73;;
5754;SDS011;2902;42.130;24.732;2022-12-18T05:53:48;7.17;;;6.47;;
5754;SDS011;2902;42.130;24.732;2022-12-18T05:56:16;9.13;;;7.60;;
5754;SDS011;2902;42.130;24.732;2022-12-18T05:58:45;7.80;;;7.10;;
5754;SDS011;2902;42.130;24.732;2022-12-18T06:01:14;7.17;;;6.67;;
5754;SDS011;2902;42.130;24.732;2022-12-18T06:03:43;7.03;;;6.47;;
5754;SDS011;2902;42.130;24.732;2022-12-18T06:06:13;7.67;;;6.93;;
5754;SDS011;2902;42.130;24.732;2022-12-18T06:08:41;7.63;;;7.03;;
5754;SDS011;2902;42.130;24.732;2022-12-18T06:11:07;8.47;;;7.10;;
5754;SDS011;2902;42.130;24.732;2022-12-18T06:13:34;8.13;;;7.33;;
5754;SDS011;2902;42.130;24.732;2022-12-18T06:16:03;7.03;;;6.43;;
5754;SDS011;2902;42.130;24.732;2022-12-18T06:18:30;7.60;;;7.00;;
5754;SDS011;2902;42.130;24.732;2022-12-18T06:20:58;8.10;;;7.30;;
5754;SDS011;2902;42.130;24.732;2022-12-18T06:23:25;7.33;;;6.73;;
5754;SDS011;2902;42.130;24.732;2022-12-18T06:25:53;11.13;;;7.90;;
5754;SDS011;2902;42.130;24.732;2022-12-18T06:28:20;8.00;;;7.00;;
5754;SDS011;2902;42.130;24.732;2022-12-18T06:30:47;7.03;;;6.53;;
5754;SDS011;2902;42.130;24.732;2022-12-18T06:33:15;7.63;;;6.93;;
5754;SDS011;2902;42.130;24.732;2022-12-18T06:35:42;9.43;;;7.50;;
5754;SDS011;2902;42.130;24.732;2022-12-18T06:38:09;7.90;;;7.20;;
5754;SDS011;2902;42.130;24.732;2022-12-18T06:40:36;9.17;;;7.73;;
5754;SDS011;2902;42.130;24.732;2022-12-18T06:43:03;7.70;;;6.93;;
5754;SDS011;2902;42.130;24.732;2022-12-18T06:45:30;8.57;;;7.73;;
5754;SDS011;2902;42.130;24.732;2022-12-18T06:47:57;7.43;;;6.83;;
5754;SDS011;2902;42.130;24.732;2022-12-18T06:50:25;7.77;;;7.03;;
5754;SDS011;2902;42.130;24.732;2022-12-18T06:52:52;7.17;;;6.57;;
5754;SDS011;2902;42.130;24.732;2022-12-18T06:55:19;6.80;;;6.30;;
5754;SDS011;2902;42.130;24.732;2022-12-18T06:57:45;10.20;;;7.13;;
5754;SDS011;2902;42.130;24.732;2022-12-18T07:00:12;8.17;;;7.47;;
5754;SDS011;2902;42.130;24.732;2022-12-18T07:02:40;8.23;;;7.37;;
5754;SDS011;2902;42.130;24.732;2022-12-18T07:05:06;7.37;;;6.80;;
5754;SDS011;2902;42.130;24.732;2022-12-18T07:07:35;9.00;;;6.80;;
5754;SDS011;2902;42.130;24.732;2022-12-18T07:10:02;8.20;;;7.50;;
5754;SDS011;2902;42.130;24.732;2022-12-18T07:12:28;10.33;;;8.20;;
5754;SDS011;2902;42.130;24.732;2022-12-18T07:14:55;7.90;;;7.20;;
5754;SDS011;2902;42.130;24.732;2022-12-18T07:17:22;9.33;;;7.87;;
5754;SDS011;2902;42.130;24.732;2022-12-18T07:19:49;6.67;;;6.23;;
5754;SDS011;2902;42.130;24.732;2022-12-18T07:22:15;7.83;;;7.03;;
5754;SDS011;2902;42.130;24.732;2022-12-18T07:24:43;7.50;;;6.90;;
5754;SDS011;2902;42.130;24.732;2022-12-18T07:27:13;6.97;;;6.27;;
5754;SDS011;2902;42.130;24.732;2022-12-18T07:29:40;9.80;;;7.77;;
5754;SDS011;2902;42.130;24.732;2022-12-18T07:32:07;6.97;;;6.47;;
5754;SDS011;2902;42.130;24.732;2022-12-18T07:34:34;10.03;;;8.93;;
5754;SDS011;2902;42.130;24.732;2022-12-18T07:37:01;8.53;;;7.57;;
5754;SDS011;2902;42.130;24.732;2022-12-18T07:39:27;8.70;;;7.80;;
5754;SDS011;2902;42.130;24.732;2022-12-18T07:41:55;11.10;;;8.60;;
5754;SDS011;2902;42.130;24.732;2022-12-18T07:44:39;8.00;;;7.30;;
5754;SDS011;2902;42.130;24.732;2022-12-18T07:47:06;7.93;;;7.13;;
5754;SDS011;2902;42.130;24.732;2022-12-18T07:49:33;6.70;;;6.00;;
5754;SDS011;2902;42.130;24.732;2022-12-18T07:52:00;11.40;;;10.33;;
5754;SDS011;2902;42.130;24.732;2022-12-18T07:54:27;11.23;;;9.37;;
5754;SDS011;2902;42.130;24.732;2022-12-18T07:56:53;10.03;;;9.13;;
5754;SDS011;2902;42.130;24.732;2022-12-18T07:59:21;10.60;;;8.47;;
5754;SDS011;2902;42.130;24.732;2022-12-18T08:01:48;8.93;;;8.07;;
5754;SDS011;2902;42.130;24.732;2022-12-18T08:04:15;10.30;;;9.30;;
5754;SDS011;2902;42.130;24.732;2022-12-18T08:06:42;12.90;;;8.67;;
5754;SDS011;2902;42.130;24.732;2022-12-18T08:09:09;10.53;;;8.03;;
5754;SDS011;2902;42.130;24.732;2022-12-18T08:11:36;11.20;;;9.83;;
5754;SDS011;2902;42.130;24.732;2022-12-18T08:14:02;10.43;;;9.23;;
5754;SDS011;2902;42.130;24.732;2022-12-18T08:16:30;10.97;;;9.50;;
5754;SDS011;2902;42.130;24.732;2022-12-18T08:18:57;12.80;;;8.67;;
5754;SDS011;2902;42.130;24.732;2022-12-18T08:21:25;14.10;;;8.93;;
5754;SDS011;2902;42.130;24.732;2022-12-18T08:23:54;9.70;;;7.77;;
5754;SDS011;2902;42.130;24.732;2022-12-18T08:26:22;9.83;;;7.97;;
5754;SDS011;2902;42.130;24.732;2022-12-18T08:28:50;11.33;;;8.20;;
5754;SDS011;2902;42.130;24.732;2022-12-18T08:31:17;11.43;;;9.00;;
5754;SDS011;2902;42.130;24.732;2022-12-18T08:33:47;9.50;;;8.60;;
5754;SDS011;2902;42.130;24.732;2022-12-18T08:36:14;9.43;;;8.53;;
5754;SDS011;2902;42.130;24.732;2022-12-18T08:38:42;8.13;;;7.33;;
5754;SDS011;2902;42.130;24.732;2022-12-18T08:41:09;9.20;;;8.07;;
5754;SDS011;2902;42.130;24.732;2022-12-18T08:43:37;13.60;;;9.57;;
5754;SDS011;2902;42.130;24.732;2022-12-18T08:46:22;11.10;;;8.00;;
5754;SDS011;2902;42.130;24.732;2022-12-18T08:48:52;8.07;;;6.93;;
5754;SDS011;2902;42.130;24.732;2022-12-18T08:51:20;9.90;;;8.70;;
5754;SDS011;2902;42.130;24.732;2022-12-18T08:53:47;7.70;;;6.97;;
5754;SDS011;2902;42.130;24.732;2022-12-18T08:56:14;14.87;;;6.97;;
5754;SDS011;2902;42.130;24.732;2022-12-18T08:58:41;8.23;;;6.20;;
5754;SDS011;2902;42.130;24.732;2022-12-18T09:01:09;7.20;;;6.53;;
5754;SDS011;2902;42.130;24.732;2022-12-18T09:03:38;9.87;;;7.90;;
5754;SDS011;2902;42.130;24.732;2022-12-18T09:06:07;8.87;;;7.97;;
5754;SDS011;2902;42.130;24.732;2022-12-18T09:08:33;9.63;;;7.87;;
5754;SDS011;2902;42.130;24.732;2022-12-18T09:11:01;7.93;;;7.30;;
5754;SDS011;2902;42.130;24.732;2022-12-18T09:13:28;9.50;;;6.93;;
5754;SDS011;2902;42.130;24.732;2022-12-18T09:15:55;9.23;;;7.90;;
5754;SDS011;2902;42.130;24.732;2022-12-18T09:18:22;8.07;;;7.03;;
5754;SDS011;2902;42.130;24.732;2022-12-18T09:20:50;9.43;;;8.43;;
5754;SDS011;2902;42.130;24.732;2022-12-18T09:23:19;8.77;;;7.93;;
5754;SDS011;2902;42.130;24.732;2022-12-18T09:25:46;8.67;;;7.67;;
5754;SDS011;2902;42.130;24.732;2022-12-18T09:28:14;7.87;;;7.13;;
5754;SDS011;2902;42.130;24.732;2022-12-18T09:30:43;11.47;;;7.07;;
5754;SDS011;2902;42.130;24.732;2022-12-18T09:33:12;8.13;;;7.40;;
5754;SDS011;2902;42.130;24.732;2022-12-18T09:35:39;8.40;;;7.50;;
5754;SDS011;2902;42.130;24.732;2022-12-18T09:38:07;10.80;;;9.77;;
5754;SDS011;2902;42.130;24.732;2022-12-18T09:40:41;9.93;;;8.60;;
5754;SDS011;2902;42.130;24.732;2022-12-18T09:43:12;11.03;;;8.30;;
5754;SDS011;2902;42.130;24.732;2022-12-18T09:45:44;12.90;;;8.90;;
5754;SDS011;2902;42.130;24.732;2022-12-18T09:48:15;14.10;;;7.87;;
5754;SDS011;2902;42.130;24.732;2022-12-18T09:50:48;10.43;;;7.70;;
5754;SDS011;2902;42.130;24.732;2022-12-18T09:53:17;9.57;;;7.67;;
5754;SDS011;2902;42.130;24.732;2022-12-18T09:55:49;7.50;;;6.83;;
5754;SDS011;2902;42.130;24.732;2022-12-18T09:58:19;8.73;;;8.03;;
5754;SDS011;2902;42.130;24.732;2022-12-18T10:00:53;8.27;;;7.47;;
5754;SDS011;2902;42.130;24.732;2022-12-18T10:03:20;7.70;;;7.07;;
5754;SDS011;2902;42.130;24.732;2022-12-18T10:05:51;17.83;;;8.23;;
5754;SDS011;2902;42.130;24.732;2022-12-18T10:08:33;8.60;;;7.80;;
5754;SDS011;2902;42.130;24.732;2022-12-18T10:11:16;9.30;;;8.40;;
5754;SDS011;2902;42.130;24.732;2022-12-18T10:13:51;8.83;;;7.93;;
5754;SDS011;2902;42.130;24.732;2022-12-18T10:16:23;9.70;;;8.73;;
5754;SDS011;2902;42.130;24.732;2022-12-18T10:19:03;9.27;;;7.97;;
5754;SDS011;2902;42.130;24.732;2022-12-18T10:21:44;8.30;;;7.60;;
5754;SDS011;2902;42.130;24.732;2022-12-18T10:24:19;11.17;;;7.50;;
5754;SDS011;2902;42.130;24.732;2022-12-18T10:26:52;9.50;;;8.70;;
5754;SDS011;2902;42.130;24.732;2022-12-18T10:29:22;9.93;;;8.93;;
5754;SDS011;2902;42.130;24.732;2022-12-18T10:31:50;9.10;;;8.30;;
5754;SDS011;2902;42.130;24.732;2022-12-18T10:34:17;11.70;;;9.57;;
5754;SDS011;2902;42.130;24.732;2022-12-18T10:36:44;11.13;;;9.87;;
5754;SDS011;2902;42.130;24.732;2022-12-18T10:39:14;8.87;;;8.00;;
5754;SDS011;2902;42.130;24.732;2022-12-18T10:41:42;10.00;;;8.97;;
5754;SDS011;2902;42.130;24.732;2022-12-18T10:44:11;10.10;;;8.70;;
5754;SDS011;2902;42.130;24.732;2022-12-18T10:46:42;11.23;;;10.03;;
5754;SDS011;2902;42.130;24.732;2022-12-18T10:49:21;10.30;;;9.30;;
5754;SDS011;2902;42.130;24.732;2022-12-18T10:51:50;18.73;;;9.80;;
5754;SDS011;2902;42.130;24.732;2022-12-18T10:54:19;12.53;;;8.37;;
5754;SDS011;2902;42.130;24.732;2022-12-18T10:56:48;15.30;;;10.67;;
5754;SDS011;2902;42.130;24.732;2022-12-18T10:59:17;10.60;;;8.57;;
5754;SDS011;2902;42.130;24.732;2022-12-18T11:01:45;12.33;;;9.53;;
5754;SDS011;2902;42.130;24.732;2022-12-18T11:04:15;8.97;;;8.07;;
5754;SDS011;2902;42.130;24.732;2022-12-18T11:06:52;11.27;;;9.23;;
5754;SDS011;2902;42.130;24.732;2022-12-18T11:09:21;10.13;;;8.83;;
5754;SDS011;2902;42.130;24.732;2022-12-18T11:11:49;10.77;;;9.60;;
5754;SDS011;2902;42.130;24.732;2022-12-18T11:14:21;10.87;;;9.70;;
5754;SDS011;2902;42.130;24.732;2022-12-18T11:16:50;11.30;;;10.20;;
5754;SDS011;2902;42.130;24.732;2022-12-18T11:19:22;10.70;;;9.60;;
5754;SDS011;2902;42.130;24.732;2022-12-18T11:21:55;11.10;;;9.97;;
5754;SDS011;2902;42.130;24.732;2022-12-18T11:24:23;8.97;;;7.73;;
5754;SDS011;2902;42.130;24.732;2022-12-18T11:26:53;11.53;;;9.90;;
5754;SDS011;2902;42.130;24.732;2022-12-18T11:29:24;12.20;;;8.73;;
5754;SDS011;2902;42.130;24.732;2022-12-18T11:32:09;9.90;;;8.80;;
5754;SDS011;2902;42.130;24.732;2022-12-18T11:35:01;120.93;;;72.83;;
5754;SDS011;2902;42.130;24.732;2022-12-18T11:37:33;10.17;;;9.13;;
5754;SDS011;2902;42.130;24.732;2022-12-18T11:40:02;10.83;;;9.70;;
5754;SDS011;2902;42.130;24.732;2022-12-18T11:42:35;10.77;;;9.67;;
5754;SDS011;2902;42.130;24.732;2022-12-18T11:45:14;10.13;;;9.07;;
5754;SDS011;2902;42.130;24.732;2022-12-18T11:47:52;16.00;;;11.37;;
5754;SDS011;2902;42.130;24.732;2022-12-18T11:50:24;12.57;;;10.10;;
5754;SDS011;2902;42.130;24.732;2022-12-18T11:52:52;14.63;;;10.93;;
5754;SDS011;2902;42.130;24.732;2022-12-18T11:55:21;24.80;;;13.20;;
5754;SDS011;2902;42.130;24.732;2022-12-18T11:57:58;19.33;;;11.73;;
5754;SDS011;2902;42.130;24.732;2022-12-18T12:00:35;11.70;;;9.27;;
5754;SDS011;2902;42.130;24.732;2022-12-18T12:03:12;13.77;;;9.70;;
5754;SDS011;2902;42.130;24.732;2022-12-18T12:06:04;15.70;;;12.20;;
5754;SDS011;2902;42.130;24.732;2022-12-18T12:08:43;13.13;;;11.30;;
5754;SDS011;2902;42.130;24.732;2022-12-18T12:11:25;11.33;;;8.90;;
5754;SDS011;2902;42.130;24.732;2022-12-18T12:14:03;10.47;;;9.57;;
5754;SDS011;2902;42.130;24.732;2022-12-18T12:16:44;9.60;;;8.70;;
5754;SDS011;2902;42.130;24.732;2022-12-18T12:19:23;14.77;;;9.73;;
5754;SDS011;2902;42.130;24.732;2022-12-18T12:22:00;10.27;;;9.30;;
5754;SDS011;2902;42.130;24.732;2022-12-18T12:24:37;12.63;;;9.97;;
5754;SDS011;2902;42.130;24.732;2022-12-18T12:27:16;9.63;;;8.73;;
5754;SDS011;2902;42.130;24.732;2022-12-18T12:29:50;10.03;;;9.03;;
5754;SDS011;2902;42.130;24.732;2022-12-18T12:32:33;11.20;;;8.80;;
5754;SDS011;2902;42.130;24.732;2022-12-18T12:35:12;10.13;;;9.13;;
5754;SDS011;2902;42.130;24.732;2022-12-18T12:37:48;12.87;;;11.60;;
5754;SDS011;2902;42.130;24.732;2022-12-18T12:40:26;10.97;;;9.73;;
5754;SDS011;2902;42.130;24.732;2022-12-18T12:42:56;14.43;;;9.47;;
5754;SDS011;2902;42.130;24.732;2022-12-18T12:45:38;12.17;;;10.30;;
5754;SDS011;2902;42.130;24.732;2022-12-18T12:48:14;17.23;;;10.73;;
5754;SDS011;2902;42.130;24.732;2022-12-18T12:50:45;11.60;;;9.73;;
5754;SDS011;2902;42.130;24.732;2022-12-18T12:53:15;9.57;;;8.77;;
5754;SDS011;2902;42.130;24.732;2022-12-18T12:55:49;10.10;;;9.13;;
5754;SDS011;2902;42.130;24.732;2022-12-18T12:58:18;10.13;;;8.57;;
5754;SDS011;2902;42.130;24.732;2022-12-18T13:00:58;9.70;;;8.80;;
5754;SDS011;2902;42.130;24.732;2022-12-18T13:03:36;10.10;;;9.00;;
5754;SDS011;2902;42.130;24.732;2022-12-18T13:06:12;9.40;;;8.50;;
5754;SDS011;2902;42.130;24.732;2022-12-18T13:08:52;9.20;;;8.37;;
5754;SDS011;2902;42.130;24.732;2022-12-18T13:11:29;9.90;;;8.60;;
5754;SDS011;2902;42.130;24.732;2022-12-18T13:14:25;11.47;;;9.17;;
5754;SDS011;2902;42.130;24.732;2022-12-18T13:20:03;13.37;;;11.57;;
5754;SDS011;2902;42.130;24.732;2022-12-18T13:22:34;12.97;;;11.27;;
5754;SDS011;2902;42.130;24.732;2022-12-18T13:25:02;11.43;;;10.27;;
5754;SDS011;2902;42.130;24.732;2022-12-18T13:30:47;12.47;;;10.30;;
5754;SDS011;2902;42.130;24.732;2022-12-18T13:33:30;15.13;;;11.70;;
5754;SDS011;2902;42.130;24.732;2022-12-18T13:36:12;16.63;;;10.77;;
5754;SDS011;2902;42.130;24.732;2022-12-18T13:38:41;13.47;;;10.87;;
5754;SDS011;2902;42.130;24.732;2022-12-18T13:41:21;18.20;;;13.20;;
5754;SDS011;2902;42.130;24.732;2022-12-18T13:43:51;23.63;;;14.67;;
5754;SDS011;2902;42.130;24.732;2022-12-18T13:46:20;21.23;;;15.20;;
5754;SDS011;2902;42.130;24.732;2022-12-18T13:48:53;21.70;;;15.30;;
5754;SDS011;2902;42.130;24.732;2022-12-18T13:51:24;21.83;;;14.60;;
5754;SDS011;2902;42.130;24.732;2022-12-18T13:53:53;24.27;;;14.50;;
5754;SDS011;2902;42.130;24.732;2022-12-18T13:56:24;19.23;;;12.97;;
5754;SDS011;2902;42.130;24.732;2022-12-18T13:59:14;18.13;;;13.40;;
5754;SDS011;2902;42.130;24.732;2022-12-18T14:01:43;17.67;;;13.30;;
5754;SDS011;2902;42.130;24.732;2022-12-18T14:04:12;23.53;;;14.57;;
5754;SDS011;2902;42.130;24.732;2022-12-18T14:06:47;20.87;;;15.27;;
5754;SDS011;2902;42.130;24.732;2022-12-18T14:09:19;23.40;;;17.77;;
5754;SDS011;2902;42.130;24.732;2022-12-18T14:11:51;20.53;;;14.77;;
5754;SDS011;2902;42.130;24.732;2022-12-18T14:14:40;22.60;;;14.80;;
5754;SDS011;2902;42.130;24.732;2022-12-18T14:17:08;17.53;;;13.17;;
5754;SDS011;2902;42.130;24.732;2022-12-18T14:19:36;18.30;;;13.43;;
5754;SDS011;2902;42.130;24.732;2022-12-18T14:22:11;66.87;;;33.90;;
5754;SDS011;2902;42.130;24.732;2022-12-18T14:24:41;30.27;;;21.00;;
5754;SDS011;2902;42.130;24.732;2022-12-18T14:27:12;24.83;;;16.43;;
5754;SDS011;2902;42.130;24.732;2022-12-18T14:29:45;24.40;;;16.13;;
5754;SDS011;2902;42.130;24.732;2022-12-18T14:32:12;29.87;;;17.87;;
5754;SDS011;2902;42.130;24.732;2022-12-18T14:34:42;17.67;;;13.97;;
5754;SDS011;2902;42.130;24.732;2022-12-18T14:37:09;18.90;;;14.30;;
5754;SDS011;2902;42.130;24.732;2022-12-18T14:39:38;15.07;;;12.23;;
5754;SDS011;2902;42.130;24.732;2022-12-18T14:42:05;23.30;;;15.43;;
5754;SDS011;2902;42.130;24.732;2022-12-18T14:44:32;23.30;;;14.67;;
5754;SDS011;2902;42.130;24.732;2022-12-18T14:46:58;15.87;;;12.27;;
5754;SDS011;2902;42.130;24.732;2022-12-18T14:49:26;14.67;;;11.93;;
5754;SDS011;2902;42.130;24.732;2022-12-18T14:51:57;20.23;;;14.97;;
5754;SDS011;2902;42.130;24.732;2022-12-18T14:54:27;29.43;;;18.90;;
5754;SDS011;2902;42.130;24.732;2022-12-18T14:56:56;22.07;;;16.50;;
5754;SDS011;2902;42.130;24.732;2022-12-18T14:59:27;24.63;;;17.17;;
5754;SDS011;2902;42.130;24.732;2022-12-18T15:02:00;26.70;;;17.00;;
5754;SDS011;2902;42.130;24.732;2022-12-18T15:04:30;24.60;;;17.33;;
5754;SDS011;2902;42.130;24.732;2022-12-18T15:07:04;21.60;;;16.07;;
5754;SDS011;2902;42.130;24.732;2022-12-18T15:09:35;24.10;;;16.13;;
5754;SDS011;2902;42.130;24.732;2022-12-18T15:12:04;19.07;;;14.57;;